Air Sicilia Virtual Airways - Rotta

Air Sicilia Virtual Airways - SIC028A

( IT ) LIRQ - 00:00
Peretola Airport
FIRENZE ( FLR )
plane_to ( IT ) LIPY - 00:00
Ancona Falconara Airport
ANCONA ( AOI )

AIRPORT NEAR NAVIGATION AIDS

Tipo Nome Frequenza
VOR-DME Peretola 112500 KHZ

METAR / TAF
LIRQ 250420Z AUTO VRB02KT 9999 NCD M01/M02 Q1033
LIRQ 242300Z 2500/2524 VRB05KT 9999 FEW030 TEMPO 2500/2507 3000 BR

INFORMAZIONI PISTE

Pista Lunghezza pista Larghezza pista Elevazione pista Runway displaced threshold Prua pista
05 5425 98 123 492 48
23 5425 98 132 2287 228

FREQUENZE AEROPORTO

Tipo Nome Frequenza
APP APP 126.075 MHZ
ATIS ATIS 129.35 MHZ
TWR FIRENZE TW 118.3 MHZ

AIRPORT NEAR NAVIGATION AIDS

Tipo Nome Frequenza
VOR-DME Ancona 110650 KHZ
NDB Ancona 375 KHZ
TACAN Falconara 109800 KHZ
NDB Falconara 358 KHZ

METAR / TAF
LIPY 250420Z AUTO 18003KT 9999 NCD M01/M03 Q1034
LIPY 242300Z 2500/2524 VRB05KT 9999 BKN035 TEMPO 2500/2507 3000 BR

INFORMAZIONI PISTE

Pista Lunghezza pista Larghezza pista Elevazione pista Runway displaced threshold Prua pista
04 9718 148 47 641 45
22 9718 148 29 492 225

FREQUENZE AEROPORTO

Tipo Nome Frequenza
APP ROMAGNA AP 37.975 MHZ
APP ROMAGNA AP 118.15 MHZ
ATIS ATIS 122.85 MHZ
TWR TWR 119.8 MHZ

Piano di volo

VFR

Air Sicilia Virtual Airways Aerei

Aerei disponibili per la rotta in questo momento a Peretola Airport
BE58 - Beechcraft Baron 58
( US ) Beechcraft

Aerei in flotta: 1

94.4402 NM

Distanza in Miglia Nautiche.

€ 242,00

Costo del biglietto per questo volo.

0 h.

Tempo di volo stimato.




12-11-2018
Aerosoft Airport Rio de Janeiro International V2.0 XP

L'Aeroporto Internazionale di Rio de Janeiro-Galeão (IATA: GIG, ICAO: SBGL), costruito nel 1952 nel quartiere di Ilha do Governador ed intitolato al musicista Antônio Carlos Jobim, è il principale aeroporto internazio ....


15-10-2018
Aerosoft A320 Family professional

La gamma di aeromobili A320 è una delle più comuni nei cieli. Questi aerei di linea a doppio-getto a corto e medio raggio si sono dimostrati convenienti, affidabili e prontamente disponibili, rendendoli le opzioni migl ....


10-10-2018
Motore critico ( Critical Engine )

Il motore critico di un velivolo ad ala fissa multi-motore è il motore che, in caso di guasto, influirebbe negativamente sulle prestazioni o sulla capacità di manovra di un aereo. Sui velivoli ad elica, vi è un ....


04-10-2018
Aerosoft Dortmund XP

Scopri il centro della regione della Ruhr su XPlane 11 - lo scenario Dortmund XP è una ricostruzione completa della città di Dortmund per il simulatore di volo targato Laminar. Oltre all'intera area urbana di Dortmu ....


07-08-2018
Aerosoft Professional Flight Planner PFPX

PFPX - Professional Flight Planner X - è un nuovo ed innovativo strumento di pianificazione del volo sviluppato da piloti e dispatcher del mondo reale. È un'aggiunta preziosa e realistica alla tua esperienza di simulaz ....